createdAt,value
2018-10-17T00:02:06.083Z,23.13
2018-10-17T00:04:35.387Z,23.07
2018-10-17T00:07:05.146Z,23.17
2018-10-17T00:09:34.678Z,22.63
2018-10-17T00:12:03.961Z,24.27
2018-10-17T00:14:33.348Z,23.87
2018-10-17T00:17:02.695Z,23.17
2018-10-17T00:19:31.929Z,22.77
2018-10-17T00:22:01.265Z,22.67
2018-10-17T00:24:30.570Z,23.57
2018-10-17T00:26:59.878Z,23.00
2018-10-17T00:29:29.185Z,24.40
2018-10-17T00:31:58.747Z,23.33
2018-10-17T00:34:28.028Z,24.03
2018-10-17T00:36:57.365Z,23.67
2018-10-17T00:39:26.607Z,23.50
2018-10-17T00:41:55.869Z,23.60
2018-10-17T00:44:25.285Z,22.17
2018-10-17T00:46:54.639Z,23.57
2018-10-17T00:49:23.983Z,23.20
2018-10-17T00:51:53.251Z,22.97
2018-10-17T00:54:22.564Z,22.93
2018-10-17T00:56:51.903Z,23.27
2018-10-17T00:59:21.187Z,23.77
2018-10-17T01:01:50.465Z,23.57
2018-10-17T01:04:19.716Z,24.07
2018-10-17T01:06:48.990Z,22.83
2018-10-17T01:09:18.338Z,23.97
2018-10-17T01:11:47.599Z,24.60
2018-10-17T01:14:17.017Z,24.17
2018-10-17T01:16:46.386Z,24.57
2018-10-17T01:19:15.675Z,24.00
2018-10-17T01:21:45.013Z,25.00
2018-10-17T01:24:14.379Z,26.10
2018-10-17T01:26:43.633Z,25.93
2018-10-17T01:29:12.980Z,28.33
2018-10-17T01:31:42.205Z,26.17
2018-10-17T01:34:12.265Z,25.87
2018-10-17T01:36:41.574Z,25.23
2018-10-17T01:39:11.615Z,25.83
2018-10-17T01:41:41.082Z,26.07
2018-10-17T01:44:10.372Z,26.97
2018-10-17T01:46:39.679Z,27.10
2018-10-17T01:49:09.039Z,26.43
2018-10-17T01:51:38.353Z,27.27
2018-10-17T01:54:07.682Z,26.60
2018-10-17T01:56:37.154Z,27.57
2018-10-17T01:59:06.959Z,26.63
2018-10-17T02:01:36.263Z,25.10
2018-10-17T02:04:05.744Z,26.23
2018-10-17T02:06:35.115Z,25.13
2018-10-17T02:09:06.311Z,25.13
2018-10-17T02:11:35.650Z,25.07
2018-10-17T02:14:05.425Z,24.73
2018-10-17T02:16:34.667Z,24.73
2018-10-17T02:19:04.092Z,24.63
2018-10-17T02:21:33.354Z,24.30
2018-10-17T02:24:02.722Z,24.27
2018-10-17T02:26:32.044Z,24.17
2018-10-17T02:29:01.423Z,25.23
2018-10-17T02:31:30.647Z,26.00
2018-10-17T02:33:59.937Z,25.43
2018-10-17T02:36:29.259Z,25.53
2018-10-17T02:38:58.644Z,26.27
2018-10-17T02:41:28.029Z,25.67
2018-10-17T02:43:57.296Z,26.27
2018-10-17T02:46:26.563Z,25.53
2018-10-17T02:48:55.878Z,26.40
2018-10-17T02:51:25.151Z,27.10
2018-10-17T02:53:55.201Z,27.80
2018-10-17T02:56:24.505Z,27.17
2018-10-17T02:58:53.867Z,26.00
2018-10-17T03:01:23.050Z,27.23
2018-10-17T03:03:52.300Z,27.23
2018-10-17T03:06:21.601Z,27.70
2018-10-17T03:08:51.747Z,27.33
2018-10-17T03:11:21.198Z,26.97
2018-10-17T03:13:50.768Z,26.40
2018-10-17T03:16:20.193Z,26.43
2018-10-17T03:18:49.511Z,27.30
2018-10-17T03:21:18.769Z,26.73
2018-10-17T03:23:48.841Z,27.27
2018-10-17T03:26:18.107Z,27.70
2018-10-17T03:28:47.397Z,27.27
2018-10-17T03:31:16.860Z,27.73
2018-10-17T03:33:46.064Z,27.67
2018-10-17T03:36:15.900Z,29.17
2018-10-17T03:38:45.250Z,27.97
2018-10-17T03:41:14.633Z,28.37
2018-10-17T03:43:43.892Z,28.83
2018-10-17T03:46:13.270Z,28.53
2018-10-17T03:48:42.699Z,28.63
2018-10-17T03:51:11.995Z,29.60
2018-10-17T03:53:41.352Z,29.23
2018-10-17T03:56:11.401Z,29.83
2018-10-17T03:58:40.745Z,30.30
2018-10-17T04:01:10.147Z,30.00
2018-10-17T04:03:39.390Z,29.80
2018-10-17T04:06:08.673Z,30.10
2018-10-17T04:08:37.955Z,29.77
2018-10-17T04:11:07.526Z,29.67
2018-10-17T04:13:36.768Z,30.83
2018-10-17T04:16:06.047Z,29.23
2018-10-17T04:18:35.303Z,29.63
2018-10-17T04:21:04.823Z,30.13
2018-10-17T04:23:34.089Z,30.00
2018-10-17T04:26:03.431Z,29.07
2018-10-17T04:28:32.692Z,29.57
2018-10-17T04:31:02.021Z,30.80
2018-10-17T04:33:31.265Z,30.03
2018-10-17T04:36:00.555Z,30.20
2018-10-17T04:38:29.896Z,29.93
2018-10-17T04:40:59.153Z,30.57
2018-10-17T04:43:29.088Z,32.00
2018-10-17T04:45:58.335Z,31.13
2018-10-17T04:48:27.706Z,30.77
2018-10-17T04:50:57.007Z,31.73
2018-10-17T04:53:27.755Z,30.87
2018-10-17T04:55:57.029Z,31.40
2018-10-17T04:58:26.292Z,32.60
2018-10-17T05:00:55.665Z,32.93
2018-10-17T05:03:24.887Z,32.30
2018-10-17T05:05:54.201Z,32.23
2018-10-17T05:08:23.484Z,32.40
2018-10-17T05:10:52.822Z,32.50
2018-10-17T05:13:22.107Z,33.23
2018-10-17T05:15:51.393Z,33.17
2018-10-17T05:18:20.681Z,33.63
2018-10-17T05:20:49.987Z,33.07
2018-10-17T05:23:20.649Z,34.33
2018-10-17T05:25:49.916Z,33.87
2018-10-17T05:28:19.257Z,32.93
2018-10-17T05:30:48.570Z,33.97
2018-10-17T05:33:17.811Z,33.73
2018-10-17T05:35:47.409Z,33.07
2018-10-17T05:38:16.664Z,34.13
2018-10-17T05:40:45.949Z,35.43
2018-10-17T05:43:15.299Z,34.60
2018-10-17T05:45:45.060Z,34.57
2018-10-17T05:48:14.383Z,33.70
2018-10-17T05:50:43.994Z,36.00
2018-10-17T05:53:13.314Z,33.17
2018-10-17T05:55:42.765Z,34.13
2018-10-17T05:58:12.041Z,32.37
2018-10-17T06:00:41.395Z,32.87
2018-10-17T06:03:10.733Z,32.97
2018-10-17T06:05:40.026Z,33.30
2018-10-17T06:08:09.288Z,33.53
2018-10-17T06:10:38.555Z,34.67
2018-10-17T06:13:07.933Z,34.43
2018-10-17T06:15:37.326Z,31.97
2018-10-17T06:18:06.797Z,34.63
2018-10-17T06:20:36.192Z,34.83
2018-10-17T06:23:05.564Z,34.00
2018-10-17T06:25:35.040Z,34.67
2018-10-17T06:28:04.588Z,33.97
2018-10-17T06:30:33.834Z,33.67
2018-10-17T06:33:03.665Z,34.70
2018-10-17T06:35:32.938Z,34.13
2018-10-17T06:38:02.215Z,34.33
2018-10-17T06:40:32.196Z,32.83
2018-10-17T06:43:01.584Z,33.93
2018-10-17T06:45:30.809Z,36.20
2018-10-17T06:48:00.088Z,34.70
2018-10-17T06:50:30.042Z,35.83
2018-10-17T06:52:59.374Z,34.53
2018-10-17T06:55:28.584Z,35.40
2018-10-17T06:57:57.928Z,34.97
2018-10-17T07:00:27.289Z,37.47
2018-10-17T07:02:56.765Z,34.80
2018-10-17T07:05:26.091Z,36.03
2018-10-17T07:07:56.081Z,36.10
2018-10-17T07:10:25.590Z,35.80
2018-10-17T07:12:54.873Z,34.97
2018-10-17T07:15:24.272Z,34.83
2018-10-17T07:17:53.661Z,35.67
2018-10-17T07:20:23.581Z,34.33
2018-10-17T07:22:52.929Z,34.50
2018-10-17T07:25:22.148Z,34.97
2018-10-17T07:27:51.565Z,34.83
2018-10-17T07:30:21.076Z,34.93
2018-10-17T07:32:50.427Z,34.47
2018-10-17T07:35:19.807Z,34.03
2018-10-17T07:37:49.074Z,33.97
2018-10-17T07:40:18.348Z,35.03
2018-10-17T07:42:47.602Z,34.30
2018-10-17T07:45:17.665Z,35.20
2018-10-17T07:47:46.912Z,33.50
2018-10-17T07:50:16.208Z,34.90
2018-10-17T07:52:45.491Z,34.83
2018-10-17T07:55:14.822Z,33.30
2018-10-17T07:57:44.137Z,33.97
2018-10-17T08:00:14.409Z,35.07
2018-10-17T08:02:43.667Z,33.63
2018-10-17T08:05:13.292Z,33.57
2018-10-17T08:07:42.650Z,33.87
2018-10-17T08:10:12.057Z,33.57
2018-10-17T08:12:41.418Z,32.13
2018-10-17T08:15:10.898Z,32.70
2018-10-17T08:17:40.202Z,31.50
2018-10-17T08:20:11.071Z,32.73
2018-10-17T08:22:40.708Z,30.57
2018-10-17T08:25:12.125Z,30.90
2018-10-17T08:27:42.135Z,31.03
2018-10-17T08:30:12.018Z,31.27
2018-10-17T08:32:41.641Z,31.70
2018-10-17T08:35:10.907Z,30.80
2018-10-17T08:37:40.777Z,31.17
2018-10-17T08:40:09.545Z,30.23
2018-10-17T08:42:38.867Z,30.37
2018-10-17T08:45:09.092Z,31.10
2018-10-17T08:47:38.347Z,30.83
2018-10-17T08:50:07.718Z,29.43
2018-10-17T08:52:37.057Z,30.50
2018-10-17T08:55:06.706Z,30.63
2018-10-17T08:57:36.006Z,30.13
2018-10-17T09:00:06.401Z,30.73
2018-10-17T09:02:35.735Z,30.67
2018-10-17T09:05:05.569Z,30.13
2018-10-17T09:07:34.853Z,30.87
2018-10-17T09:10:04.216Z,30.93
2018-10-17T09:12:33.469Z,30.67
2018-10-17T09:15:02.788Z,29.73
2018-10-17T09:17:32.078Z,31.10
2018-10-17T09:23:37.138Z,30.90
2018-10-17T09:26:06.398Z,30.67
2018-10-17T09:28:35.771Z,29.43
2018-10-17T09:31:05.165Z,29.70
2018-10-17T09:33:34.726Z,29.70
2018-10-17T09:36:04.253Z,28.47
2018-10-17T09:38:33.480Z,29.77
2018-10-17T09:41:02.795Z,29.43
2018-10-17T09:43:32.114Z,27.77
2018-10-17T09:46:01.504Z,27.10
2018-10-17T09:48:31.593Z,26.77
2018-10-17T09:51:00.894Z,25.52
2018-10-17T09:53:30.308Z,26.82
2018-10-17T09:55:59.781Z,26.50
2018-10-17T09:58:29.906Z,26.25
2018-10-17T10:01:04.352Z,25.40
2018-10-17T10:03:33.671Z,24.02
2018-10-17T10:06:03.043Z,24.82
2018-10-17T10:08:32.317Z,25.15
2018-10-17T10:11:01.812Z,23.00
2018-10-17T10:13:31.252Z,23.27
2018-10-17T10:16:00.569Z,22.77
2018-10-17T10:18:29.852Z,22.50
2018-10-17T10:20:59.212Z,22.77
2018-10-17T10:23:28.993Z,22.67
2018-10-17T10:25:58.364Z,22.30
2018-10-17T10:28:27.815Z,21.52
2018-10-17T10:30:57.085Z,20.25
2018-10-17T10:33:26.519Z,19.65
2018-10-17T10:35:55.871Z,19.82
2018-10-17T10:38:25.194Z,19.65
2018-10-17T10:40:54.597Z,18.98
2018-10-17T10:43:24.261Z,17.80
2018-10-17T10:45:53.578Z,16.70
2018-10-17T10:48:22.951Z,15.95
2018-10-17T10:50:52.249Z,16.05
2018-10-17T10:53:21.537Z,16.10
2018-10-17T10:55:50.931Z,16.55
2018-10-17T10:58:20.447Z,15.95
2018-10-17T11:00:49.645Z,15.78
2018-10-17T11:03:18.973Z,14.47
2018-10-17T11:05:48.492Z,14.50
2018-10-17T11:08:18.320Z,14.55
2018-10-17T11:10:47.586Z,15.63
2018-10-17T11:13:16.898Z,14.55
2018-10-17T11:15:46.304Z,14.40
2018-10-17T11:18:15.693Z,14.78
2018-10-17T11:20:45.857Z,13.62
2018-10-17T11:23:15.303Z,16.17
2018-10-17T11:25:45.634Z,16.70
2018-10-17T11:28:14.981Z,14.30
2018-10-17T11:30:44.393Z,13.68
2018-10-17T11:33:13.832Z,12.35
2018-10-17T11:35:43.094Z,13.15
2018-10-17T11:38:12.397Z,12.53
2018-10-17T11:40:41.953Z,12.30
2018-10-17T11:43:11.156Z,13.38
2018-10-17T11:45:40.469Z,12.07
2018-10-17T11:48:09.797Z,13.25
2018-10-17T11:50:39.261Z,12.80
2018-10-17T11:53:08.574Z,13.25
2018-10-17T11:55:37.948Z,13.28
2018-10-17T11:58:07.335Z,14.23
2018-10-17T12:00:36.635Z,14.28
2018-10-17T12:03:06.035Z,14.15
2018-10-17T12:05:35.683Z,13.70
2018-10-17T12:08:06.318Z,14.35
2018-10-17T12:10:35.662Z,14.63
2018-10-17T12:13:11.501Z,14.05
2018-10-17T12:15:42.746Z,12.82
2018-10-17T12:18:12.630Z,13.53
2018-10-17T12:20:41.933Z,15.40
2018-10-17T12:23:11.430Z,13.15
2018-10-17T12:25:41.562Z,12.47
2018-10-17T12:28:11.059Z,12.88
2018-10-17T12:30:40.556Z,13.48
2018-10-17T12:33:09.907Z,12.88
2018-10-17T12:35:39.329Z,11.38
2018-10-17T12:38:08.667Z,10.10
2018-10-17T12:40:38.184Z,10.45
2018-10-17T12:43:07.407Z,9.70
2018-10-17T12:45:36.840Z,9.70
2018-10-17T12:48:06.405Z,8.70
2018-10-17T12:50:35.753Z,8.20
2018-10-17T12:53:05.439Z,8.70
2018-10-17T12:55:34.851Z,7.20
2018-10-17T12:58:05.154Z,6.50
2018-10-17T13:00:34.530Z,7.03
2018-10-17T13:03:04.028Z,6.30
2018-10-17T13:05:33.425Z,6.87
2018-10-17T13:08:03.160Z,5.90
2018-10-17T13:10:32.471Z,6.47
2018-10-17T13:13:01.900Z,6.10
2018-10-17T13:15:31.906Z,6.30
2018-10-17T13:18:01.275Z,5.07
2018-10-17T13:20:30.737Z,5.30
2018-10-17T13:23:00.071Z,5.30
2018-10-17T13:25:30.243Z,5.43
2018-10-17T13:27:59.686Z,5.47
2018-10-17T13:30:29.186Z,5.37
2018-10-17T13:32:58.525Z,3.90
2018-10-17T13:35:28.504Z,3.60
2018-10-17T13:37:59.601Z,3.93
2018-10-17T13:40:29.597Z,4.20
2018-10-17T13:42:58.996Z,4.53
2018-10-17T13:45:28.388Z,4.47
2018-10-17T13:47:58.915Z,4.13
2018-10-17T13:50:28.340Z,4.90
2018-10-17T13:52:57.676Z,5.07
2018-10-17T13:55:27.363Z,5.00
2018-10-17T13:57:56.886Z,4.70
2018-10-17T14:00:26.166Z,4.90
2018-10-17T14:02:56.168Z,5.20
2018-10-17T14:05:25.534Z,4.77
2018-10-17T14:07:54.874Z,5.03
2018-10-17T14:10:24.165Z,5.13
2018-10-17T14:12:53.602Z,4.70
2018-10-17T14:15:22.933Z,4.60
2018-10-17T14:17:52.254Z,4.83
2018-10-17T14:20:21.550Z,4.53
2018-10-17T14:22:50.877Z,4.57
2018-10-17T14:25:20.294Z,5.47
2018-10-17T14:27:49.854Z,4.63
2018-10-17T14:30:19.312Z,5.13
2018-10-17T14:32:48.545Z,5.30
2018-10-17T14:35:17.880Z,8.67
2018-10-17T14:37:47.282Z,6.70
2018-10-17T14:40:16.721Z,6.23
2018-10-17T14:42:46.044Z,4.90
2018-10-17T14:45:15.500Z,4.60
2018-10-17T14:47:44.816Z,4.10
2018-10-17T14:50:14.170Z,4.10
2018-10-17T14:52:43.492Z,4.37
2018-10-17T14:55:12.952Z,4.40
2018-10-17T14:57:43.857Z,4.60
2018-10-17T15:00:15.041Z,3.77
2018-10-17T15:02:44.676Z,4.10
2018-10-17T15:05:14.103Z,3.70
2018-10-17T15:07:43.896Z,4.10
2018-10-17T15:10:13.278Z,4.13
2018-10-17T15:12:42.547Z,4.13
2018-10-17T15:15:12.947Z,4.00
2018-10-17T15:17:42.337Z,4.43
2018-10-17T15:20:11.647Z,5.07
2018-10-17T15:22:40.953Z,4.90
2018-10-17T15:25:10.361Z,4.40
2018-10-17T15:27:39.771Z,4.10
2018-10-17T15:30:09.154Z,4.27
2018-10-17T15:32:38.645Z,3.73
2018-10-17T15:35:08.442Z,3.93
2018-10-17T15:37:37.809Z,3.67
2018-10-17T15:40:07.200Z,3.77
2018-10-17T15:42:36.850Z,4.30
2018-10-17T15:45:06.826Z,3.90
2018-10-17T15:47:36.259Z,4.83
2018-10-17T15:50:05.669Z,5.00
2018-10-17T15:52:34.976Z,3.93
2018-10-17T15:55:04.461Z,4.30
2018-10-17T15:57:33.831Z,4.17
2018-10-17T16:00:03.292Z,3.87
2018-10-17T16:02:32.713Z,3.90
2018-10-17T16:05:02.061Z,4.30
2018-10-17T16:07:31.360Z,4.07
2018-10-17T16:10:00.755Z,4.27
2018-10-17T16:12:30.065Z,4.17
2018-10-17T16:14:59.447Z,4.07
2018-10-17T16:17:28.822Z,4.40
2018-10-17T16:19:58.168Z,4.20
2018-10-17T16:22:27.506Z,4.13
2018-10-17T16:24:56.821Z,4.30
2018-10-17T16:27:26.189Z,4.33
2018-10-17T16:29:55.952Z,4.47
2018-10-17T16:32:25.343Z,5.13
2018-10-17T16:34:56.861Z,6.07
2018-10-17T16:37:26.753Z,7.30
2018-10-17T16:39:56.977Z,8.10
2018-10-17T16:42:26.371Z,7.63
2018-10-17T16:44:55.840Z,7.20
2018-10-17T16:47:25.210Z,6.50
2018-10-17T16:49:54.727Z,6.00
2018-10-17T16:52:25.258Z,5.73
2018-10-17T16:54:54.693Z,6.00
2018-10-17T16:57:24.047Z,6.73
2018-10-17T16:59:53.422Z,6.43
2018-10-17T17:02:22.856Z,6.33
2018-10-17T17:04:52.275Z,7.13
2018-10-17T17:07:21.636Z,8.00
2018-10-17T17:09:50.989Z,6.13
2018-10-17T17:12:20.343Z,5.63
2018-10-17T17:14:50.885Z,5.47
2018-10-17T17:17:20.290Z,5.30
2018-10-17T17:19:49.697Z,5.00
2018-10-17T17:22:19.010Z,5.03
2018-10-17T17:24:48.359Z,4.57
2018-10-17T17:27:19.044Z,4.63
2018-10-17T17:29:48.624Z,4.10
2018-10-17T17:32:17.992Z,4.77
2018-10-17T17:34:47.628Z,4.50
2018-10-17T17:37:16.969Z,4.53
2018-10-17T17:39:46.485Z,5.00
2018-10-17T17:42:15.790Z,5.63
2018-10-17T17:44:45.185Z,5.17
2018-10-17T17:47:14.533Z,5.23
2018-10-17T17:49:43.891Z,4.50
2018-10-17T17:52:13.276Z,4.60
2018-10-17T17:54:42.711Z,4.30
2018-10-17T17:57:12.135Z,4.17
2018-10-17T17:59:41.510Z,4.00
2018-10-17T18:02:10.982Z,4.80
2018-10-17T18:04:40.434Z,4.63
2018-10-17T18:07:09.770Z,4.50
2018-10-17T18:09:39.162Z,4.37
2018-10-17T18:12:08.521Z,4.90
2018-10-17T18:14:37.985Z,5.07
2018-10-17T18:17:07.336Z,4.30
2018-10-17T18:19:36.968Z,4.97
2018-10-17T18:22:06.468Z,4.50
2018-10-17T18:24:35.934Z,5.30
2018-10-17T18:27:05.919Z,5.30
2018-10-17T18:29:35.546Z,5.20
2018-10-17T18:32:05.285Z,7.40
2018-10-17T18:34:34.589Z,5.50
2018-10-17T18:37:03.959Z,5.97
2018-10-17T18:39:33.353Z,4.93
2018-10-17T18:42:02.965Z,5.03
2018-10-17T18:44:32.272Z,5.60
2018-10-17T18:47:01.771Z,5.50
2018-10-17T18:49:31.220Z,7.00
2018-10-17T18:52:01.809Z,7.80
2018-10-17T18:54:31.174Z,7.53
2018-10-17T18:57:01.295Z,6.47
2018-10-17T18:59:30.609Z,6.43
2018-10-17T19:02:01.029Z,5.90
2018-10-17T19:04:30.458Z,5.60
2018-10-17T19:06:59.978Z,6.17
2018-10-17T19:09:29.450Z,5.03
2018-10-17T19:11:59.619Z,5.43
2018-10-17T19:14:29.178Z,5.10
2018-10-17T19:16:59.210Z,5.23
2018-10-17T19:19:29.039Z,4.60
2018-10-17T19:21:58.403Z,4.80
2018-10-17T19:24:27.859Z,5.07
2018-10-17T19:26:57.270Z,5.90
2018-10-17T19:29:26.736Z,5.20
2018-10-17T19:31:56.116Z,5.43
2018-10-17T19:34:25.534Z,5.43
2018-10-17T19:36:54.900Z,4.80
2018-10-17T19:39:24.230Z,4.83
2018-10-17T19:41:53.618Z,4.70
2018-10-17T19:44:23.138Z,5.30
2018-10-17T19:46:52.542Z,4.63
2018-10-17T19:49:22.664Z,5.13
2018-10-17T19:51:54.060Z,6.20
2018-10-17T19:54:23.432Z,6.10
2018-10-17T19:56:53.416Z,6.83
2018-10-17T19:59:23.454Z,7.50
2018-10-17T20:01:52.786Z,7.13
2018-10-17T20:04:22.156Z,7.27
2018-10-17T20:06:51.608Z,6.73
2018-10-17T20:09:21.006Z,6.60
2018-10-17T20:11:50.317Z,6.07
2018-10-17T20:14:19.776Z,6.33
2018-10-17T20:16:49.053Z,6.70
2018-10-17T20:19:18.340Z,6.57
2018-10-17T20:21:47.693Z,6.80
2018-10-17T20:24:17.037Z,6.50
2018-10-17T20:26:46.524Z,6.77
2018-10-17T20:29:15.925Z,6.23
2018-10-17T20:31:45.319Z,6.60
2018-10-17T20:34:16.152Z,6.40
2018-10-17T20:36:45.518Z,6.50
2018-10-17T20:39:15.427Z,6.60
2018-10-17T20:41:45.547Z,6.33
2018-10-17T20:44:15.044Z,6.70
2018-10-17T20:46:44.438Z,7.00
2018-10-17T20:49:13.993Z,6.60
2018-10-17T20:51:43.448Z,11.53
2018-10-17T20:54:13.196Z,7.77
2018-10-17T20:56:42.593Z,6.53
2018-10-17T20:59:11.968Z,6.73
2018-10-17T21:01:41.373Z,7.67
2018-10-17T21:04:11.364Z,6.73
2018-10-17T21:06:41.339Z,6.27
2018-10-17T21:09:14.153Z,6.30
2018-10-17T21:11:43.534Z,6.63
2018-10-17T21:14:12.936Z,6.93
2018-10-17T21:16:43.005Z,7.20
2018-10-17T21:19:12.351Z,6.77
2018-10-17T21:21:41.674Z,6.80
2018-10-17T21:24:11.073Z,7.10
2018-10-17T21:26:40.413Z,8.00
2018-10-17T21:29:09.776Z,7.10
2018-10-17T21:31:39.303Z,7.33
2018-10-17T21:34:08.622Z,7.73
2018-10-17T21:36:38.047Z,8.30
2018-10-17T21:39:12.098Z,8.80
2018-10-17T21:41:41.530Z,8.27
2018-10-17T21:44:11.700Z,8.73
2018-10-17T21:46:41.420Z,8.43
2018-10-17T21:49:10.906Z,8.57
2018-10-17T21:51:40.719Z,8.57
2018-10-17T21:54:10.056Z,8.07
2018-10-17T21:56:39.457Z,9.10
2018-10-17T21:59:09.588Z,9.10
2018-10-17T22:01:39.000Z,8.67
2018-10-17T22:04:08.347Z,8.90
2018-10-17T22:06:38.364Z,8.97
2018-10-17T22:09:09.904Z,8.60
2018-10-17T22:11:39.417Z,8.73
2018-10-17T22:14:08.856Z,9.07
2018-10-17T22:16:43.340Z,9.27
2018-10-17T22:19:12.950Z,10.00
2018-10-17T22:21:42.096Z,10.33
2018-10-17T22:24:11.486Z,9.37
2018-10-17T22:26:40.805Z,10.10
2018-10-17T22:29:10.162Z,10.20
2018-10-17T22:31:40.317Z,9.37
2018-10-17T22:34:09.818Z,10.17
2018-10-17T22:36:39.579Z,9.43
2018-10-17T22:39:11.968Z,10.37
2018-10-17T22:41:41.706Z,10.00
2018-10-17T22:44:11.162Z,9.90
2018-10-17T22:46:40.474Z,10.13
2018-10-17T22:49:10.618Z,9.87
2018-10-17T22:51:40.445Z,10.20
2018-10-17T22:54:09.844Z,9.97
2018-10-17T22:56:39.744Z,10.30
2018-10-17T22:59:09.081Z,9.93
2018-10-17T23:01:38.587Z,9.43
2018-10-17T23:04:08.540Z,9.50
2018-10-17T23:06:38.403Z,9.50
2018-10-17T23:09:11.126Z,9.00
2018-10-17T23:11:41.042Z,9.67
2018-10-17T23:14:10.834Z,8.77
2018-10-17T23:16:40.808Z,8.87
2018-10-17T23:19:11.036Z,9.07
2018-10-17T23:21:41.175Z,8.27
2018-10-17T23:24:10.442Z,7.97
2018-10-17T23:26:39.794Z,8.23
2018-10-17T23:29:09.149Z,7.60
2018-10-17T23:31:38.438Z,7.70
2018-10-17T23:34:07.824Z,7.53
2018-10-17T23:36:37.126Z,7.63
2018-10-17T23:39:08.520Z,8.07
2018-10-17T23:41:38.248Z,7.33
2018-10-17T23:44:07.803Z,7.60
2018-10-17T23:46:37.033Z,7.30
2018-10-17T23:49:06.417Z,7.93
2018-10-17T23:51:35.730Z,7.73
2018-10-17T23:54:05.074Z,7.17
2018-10-17T23:56:34.330Z,7.63
2018-10-17T23:59:03.665Z,7.47
